Time;durP1;ratioP1;P1;durP2;ratioP2;P2;SDS_P1;SDS_P2;PMS_P1;PMS_P2;Temp;Humidity;BMP_temperature;BMP_pressure;BME280_temperature;BME280_humidity;BME280_pressure;Samples;Min_cycle;Max_cycle;Signal;HPM_P1;HPM_P2
2023/01/29 00:01:15;;;;;;;26.65;14.02;;;;;;;;;;4905068;29;20119;-71
2023/01/29 00:03:41;;;;;;;29.90;14.45;;;;;;;;;;4904941;29;20039;-71
2023/01/29 00:06:08;;;;;;;29.38;14.77;;;;;;;;;;4889251;29;20059;-71
2023/01/29 00:08:35;;;;;;;31.25;15.57;;;;;;;;;;4920656;29;20401;-71
2023/01/29 00:11:02;;;;;;;30.38;14.85;;;;;;;;;;4889368;29;20040;-71
2023/01/29 00:13:28;;;;;;;30.70;15.30;;;;;;;;;;4904541;29;20126;-72
2023/01/29 00:15:55;;;;;;;29.38;13.73;;;;;;;;;;4920343;29;20040;-71
2023/01/29 00:18:21;;;;;;;33.05;14.30;;;;;;;;;;4920063;29;20046;-71
2023/01/29 00:20:47;;;;;;;42.15;16.45;;;;;;;;;;4919969;29;20499;-71
2023/01/29 00:23:14;;;;;;;35.78;16.17;;;;;;;;;;4920214;29;20066;-70
2023/01/29 00:25:40;;;;;;;32.58;14.35;;;4.80;99.90;;;;;;4919363;29;20052;-71
2023/01/29 00:28:07;;;;;;;35.28;14.90;;;;;;;;;;4920225;29;20079;-73
2023/01/29 00:30:33;;;;;;;35.45;15.18;;;;;;;;;;4920065;29;20043;-71
2023/01/29 00:32:59;;;;;;;40.17;15.98;;;;;;;;;;4919600;29;20135;-71
2023/01/29 00:35:25;;;;;;;34.13;14.30;;;;;;;;;;4919723;29;20065;-71
2023/01/29 00:37:51;;;;;;;34.40;14.00;;;;;;;;;;4919876;29;20560;-71
2023/01/29 00:40:17;;;;;;;36.90;14.95;;;;;;;;;;4919762;29;20048;-71
2023/01/29 00:45:28;;;;;;;32.13;14.52;;;;;;;;;;4906550;29;20043;-71
2023/01/29 00:47:54;;;;;;;28.17;13.55;;;;;;;;;;4919571;29;20074;-71
2023/01/29 00:50:20;;;;;;;31.95;13.57;;;;;;;;;;4903899;29;20134;-71
2023/01/29 00:52:48;;;;;;;29.30;13.65;;;;;;;;;;4903966;29;20047;-70
2023/01/29 00:55:14;;;;;;;34.38;14.82;;;;;;;;;;4919527;29;20127;-71
2023/01/29 00:57:40;;;;;;;29.25;13.68;;;;;;;;;;4919703;29;20185;-70
2023/01/29 01:00:11;;;;;;;28.50;13.70;;;4.90;99.90;;;;;;4903702;29;20468;-71
2023/01/29 01:05:22;;;;;;;26.00;12.98;;;;;;;;;;4919237;29;20044;-71
2023/01/29 01:07:50;;;;;;;29.00;14.15;;;4.70;99.90;;;;;;4919441;29;20403;-71
2023/01/29 01:10:23;;;;;;;34.03;13.77;;;4.90;99.90;;;;;;4935337;29;20152;-71
2023/01/29 01:13:02;;;;;;;29.40;14.52;;;;;;;;;;4919456;29;20055;-70
2023/01/29 01:15:30;;;;;;;30.80;14.55;;;;;;;;;;4903453;29;20043;-71
2023/01/29 01:17:59;;;;;;;32.25;14.20;;;4.80;99.90;;;;;;4919248;29;20040;-71
2023/01/29 01:20:26;;;;;;;31.25;16.08;;;;;;;;;;4919171;29;20044;-71
2023/01/29 01:22:55;;;;;;;31.17;15.23;;;;;;;;;;4903819;29;20062;-71
2023/01/29 01:25:22;;;;;;;29.55;15.15;;;;;;;;;;4918994;29;20507;-71
2023/01/29 01:27:52;;;;;;;36.47;16.35;;;;;;;;;;4919215;29;20043;-71
2023/01/29 01:30:18;;;;;;;37.17;17.48;;;;;;;;;;4919127;29;20130;-71
2023/01/29 01:32:44;;;;;;;36.05;15.77;;;;;;;;;;4918756;29;20050;-71
2023/01/29 01:35:11;;;;;;;38.00;17.60;;;;;;;;;;4918670;29;20516;-71
2023/01/29 01:37:38;;;;;;;40.78;17.92;;;;;;;;;;4903219;29;20559;-71
2023/01/29 01:40:11;;;;;;;40.13;18.98;;;4.90;99.90;;;;;;4918702;29;20103;-70
2023/01/29 01:42:39;;;;;;;37.45;17.30;;;4.80;99.90;;;;;;4919125;29;20054;-71
2023/01/29 01:45:06;;;;;;;46.08;19.95;;;;;;;;;;4919232;29;20050;-71
2023/01/29 01:47:53;;;;;;;38.65;18.67;;;;;;;;;;4903397;29;20048;-71
2023/01/29 01:50:41;;;;;;;36.10;17.58;;;5.10;99.90;;;;;;4902858;29;20055;-70
2023/01/29 01:53:11;;;;;;;38.83;17.65;;;4.80;99.90;;;;;;4919334;29;20048;-71
2023/01/29 01:55:41;;;;;;;38.10;18.13;;;;;;;;;;4919033;29;20082;-71
2023/01/29 01:58:17;;;;;;;38.17;17.95;;;;;;;;;;4918793;29;20073;-71
2023/01/29 02:00:43;;;;;;;37.55;17.77;;;;;;;;;;4918542;29;20425;-71
2023/01/29 02:11:48;;;;;;;42.20;17.55;;;;;;;;;;4918644;29;20044;-71
2023/01/29 02:14:14;;;;;;;40.70;19.13;;;;;;;;;;4918616;29;20047;-71
2023/01/29 02:16:40;;;;;;;46.63;20.27;;;;;;;;;;4918849;29;20385;-71
2023/01/29 02:19:10;;;;;;;40.92;19.17;;;;;;;;;;4918763;29;20061;-71
2023/01/29 02:21:42;;;;;;;42.05;19.52;;;;;;;;;;4918462;29;20079;-71
2023/01/29 02:24:20;;;;;;;38.30;19.58;;;;;;;;;;4918597;29;20057;-71
2023/01/29 02:26:57;;;;;;;49.08;19.95;;;4.70;99.90;;;;;;4903400;29;20040;-71
2023/01/29 02:30:00;;;;;;;43.85;21.45;;;4.80;99.90;;;;;;4918769;29;20111;-71
2023/01/29 02:32:37;;;;;;;46.47;20.50;;;5.10;99.90;;;;;;4874450;29;20146;-71
2023/01/29 02:35:30;;;;;;;45.72;21.63;;;4.70;99.90;;;;;;4918804;29;20400;-71
2023/01/29 02:37:57;;;;;;;45.03;20.27;;;;;;;;;;4918125;29;20493;-71
2023/01/29 02:40:43;;;;;;;45.35;20.33;;;;;;;;;;4918423;29;20090;-71
2023/01/29 02:43:12;;;;;;;46.25;21.92;;;;;;;;;;4918296;29;20035;-72
2023/01/29 02:45:44;;;;;;;42.78;19.65;;;;;;;;;;4902632;29;20094;-71
2023/01/29 02:48:16;;;;;;;44.90;20.98;;;4.70;99.90;;;;;;4918619;29;20131;-71
2023/01/29 02:51:23;;;;;;;48.75;22.05;;;4.80;99.90;;;;;;4921474;29;20130;-74
2023/01/29 02:54:07;;;;;;;40.08;19.55;;;;;;;;;;4827754;29;20654;-74
2023/01/29 02:57:03;;;;;;;44.70;19.48;;;4.80;99.90;;;;;;4827705;29;20089;-74
2023/01/29 02:59:48;;;;;;;40.83;19.42;;;4.80;99.90;;;;;;4904578;29;20504;-74
2023/01/29 03:02:19;;;;;;;48.40;20.30;;;4.80;99.90;;;;;;4937478;29;20040;-74
2023/01/29 03:04:52;;;;;;;46.97;21.83;;;4.90;99.90;;;;;;4921439;29;20147;-74
2023/01/29 03:07:44;;;;;;;44.45;20.02;;;4.70;99.90;;;;;;4921435;29;20122;-74
2023/01/29 03:10:26;;;;;;;51.03;22.63;;;;;;;;;;4937378;29;20134;-74
2023/01/29 03:13:05;;;;;;;45.50;21.17;;;4.80;99.90;;;;;;4921245;29;20050;-74
2023/01/29 03:15:41;;;;;;;46.30;21.40;;;4.90;99.90;;;;;;4921202;29;20078;-74
2023/01/29 03:18:13;;;;;;;44.20;20.55;;;;;;;;;;4921328;29;20047;-74
2023/01/29 03:20:49;;;;;;;44.28;20.65;;;4.80;99.90;;;;;;4921031;29;20359;-74
2023/01/29 03:34:33;;;;;;;48.08;21.50;;;4.60;99.90;;;;;;4827123;29;20518;-74
2023/01/29 03:37:07;;;;;;;47.85;21.17;;;4.80;99.90;;;;;;4854331;29;20052;-74
2023/01/29 03:39:33;;;;;;;49.60;22.08;;;;;;;;;;4921443;29;20063;-74
2023/01/29 03:42:06;;;;;;;55.65;24.35;;;;;;;;;;4920857;29;20558;-74
2023/01/29 03:44:39;;;;;;;51.38;23.20;;;;;;;;;;4920852;29;20042;-74
2023/01/29 03:47:21;;;;;;;50.50;23.20;;;4.80;99.90;;;;;;4920536;29;20047;-71
2023/01/29 03:49:52;;;;;;;61.80;26.35;;;5.00;99.90;;;;;;4920695;29;20052;-71
2023/01/29 03:52:21;;;;;;;55.22;23.60;;;;;;;;;;4920911;29;20053;-71
2023/01/29 03:55:05;;;;;;;54.33;25.42;;;;;;;;;;4920634;29;20131;-71
2023/01/29 03:57:41;;;;;;;56.80;25.00;;;4.70;99.90;;;;;;4920780;29;20250;-71
2023/01/29 04:00:21;;;;;;;55.92;24.80;;;4.50;99.90;;;;;;4935811;29;20044;-70
2023/01/29 04:03:22;;;;;;;59.03;24.48;;;4.60;99.90;;;;;;4920464;29;20387;-71
2023/01/29 04:06:04;;;;;;;51.53;23.23;;;4.70;99.90;;;;;;4920380;29;20477;-71
2023/01/29 04:08:31;;;;;;;54.08;24.17;;;;;;;;;;4935988;29;20044;-71
2023/01/29 04:10:59;;;;;;;49.20;22.33;;;;;;;;;;4920317;29;20048;-71
2023/01/29 04:13:28;;;;;;;50.45;22.60;;;4.90;99.90;;;;;;4920072;29;20039;-71
2023/01/29 04:15:59;;;;;;;56.72;22.75;;;;;;;;;;4935767;29;20047;-71
2023/01/29 04:18:25;;;;;;;47.67;22.15;;;;;;;;;;4919828;29;20039;-71
2023/01/29 04:20:51;;;;;;;48.38;21.10;;;;;;;;;;4919840;29;20091;-71
2023/01/29 04:23:22;;;;;;;46.08;21.52;;;;;;;;;;4904406;29;20425;-71
2023/01/29 04:26:06;;;;;;;45.50;21.70;;;4.90;99.90;;;;;;4920055;29;20046;-71
2023/01/29 04:28:56;;;;;;;50.17;22.50;;;4.80;99.90;;;;;;4935541;29;20036;-71
2023/01/29 04:31:31;;;;;;;46.20;21.25;;;4.80;99.90;;;;;;4920226;29;20139;-71
2023/01/29 04:34:24;;;;;;;43.85;21.88;;;4.90;99.90;;;;;;4935856;29;20149;-71
2023/01/29 04:36:53;;;;;;;;;;;4.90;99.90;;;;;;4920181;29;20051;-71
2023/01/29 04:39:45;;;;;;;42.35;19.38;;;4.80;99.90;;;;;;4919792;29;19974;-71
2023/01/29 04:42:34;;;;;;;43.57;21.00;;;4.90;99.90;;;;;;4919905;29;20039;-71
2023/01/29 04:45:19;;;;;;;44.08;21.38;;;;;;;;;;4919831;29;20288;-71
2023/01/29 04:48:00;;;;;;;48.42;22.95;;;;;;;;;;4903734;29;20035;-71
2023/01/29 04:50:29;;;;;;;50.13;21.13;;;;;;;;;;4919700;29;20090;-71
2023/01/29 04:53:12;;;;;;;48.72;22.55;;;;;;;;;;4919672;29;20377;-71
2023/01/29 04:55:45;;;;;;;42.53;20.35;;;;;;;;;;4919213;29;20051;-71
2023/01/29 04:58:11;;;;;;;58.45;23.42;;;;;;;;;;4903509;29;20056;-71
2023/01/29 05:00:43;;;;;;;48.38;21.38;;;4.90;99.90;;;;;;4919071;29;20048;-71
2023/01/29 05:03:12;;;;;;;42.95;21.20;;;;;;;;;;4919345;29;20040;-72
2023/01/29 05:05:40;;;;;;;49.28;23.27;;;;;;;;;;4919291;29;20047;-71
2023/01/29 05:08:06;;;;;;;47.97;22.20;;;;;;;;;;4919346;29;20437;-72
2023/01/29 05:10:33;;;;;;;49.40;21.52;;;4.90;99.90;;;;;;4919510;29;20051;-72
2023/01/29 05:13:02;;;;;;;46.83;21.05;;;4.80;99.90;;;;;;4934674;29;20043;-71
2023/01/29 05:15:37;;;;;;;49.63;20.77;;;4.90;99.90;;;;;;4919142;29;20043;-72
2023/01/29 05:18:07;;;;;;;40.83;19.48;;;4.80;99.90;;;;;;4918996;29;20043;-71
2023/01/29 05:20:34;;;;;;;42.28;20.77;;;;;;;;;;4934980;29;20047;-71
2023/01/29 05:23:00;;;;;;;41.63;19.38;;;;;;;;;;4903155;29;20075;-71
2023/01/29 05:25:28;;;;;;;45.80;21.00;;;4.80;99.90;;;;;;4903484;29;20040;-71
2023/01/29 05:28:12;;;;;;;42.70;20.65;;;;;;;;;;4903357;29;20043;-71
2023/01/29 05:30:39;;;;;;;40.17;19.38;;;;;;;;;;4919057;29;20052;-71
2023/01/29 05:33:11;;;;;;;47.70;20.25;;;;;;;;;;4903107;29;20130;-71
2023/01/29 05:35:38;;;;;;;49.40;22.60;;;;;;;;;;4918930;29;20059;-71
2023/01/29 05:38:04;;;;;;;49.28;22.52;;;;;;;;;;4919265;29;20099;-72
2023/01/29 05:40:30;;;;;;;45.72;21.10;;;;;;;;;;4918697;29;20048;-71
2023/01/29 05:42:56;;;;;;;45.78;21.17;;;;;;;;;;4918660;29;20046;-71
2023/01/29 05:45:22;;;;;;;53.90;22.10;;;;;;;;;;4903636;29;20039;-72
2023/01/29 05:47:48;;;;;;;44.85;22.02;;;;;;;;;;4918768;29;20126;-72
2023/01/29 05:50:14;;;;;;;47.25;22.75;;;;;;;;;;4903078;29;20047;-72
2023/01/29 05:52:40;;;;;;;50.40;22.67;;;;;;;;;;4918810;29;20048;-71
2023/01/29 05:55:08;;;;;;;50.45;23.23;;;4.80;99.90;;;;;;4919126;29;20055;-71
2023/01/29 05:57:34;;;;;;;65.57;22.52;;;;;;;;;;4918990;29;20519;-71
2023/01/29 06:00:00;;;;;;;51.58;23.30;;;;;;;;;;4918823;29;20179;-71
2023/01/29 06:02:30;;;;;;;47.13;22.92;;;4.80;99.90;;;;;;4918557;29;20056;-71
2023/01/29 06:04:56;;;;;;;51.42;22.05;;;;;;;;;;4934593;29;20043;-71
2023/01/29 06:07:22;;;;;;;51.63;22.42;;;;;;;;;;4918939;29;20051;-71
2023/01/29 06:09:48;;;;;;;52.42;23.17;;;;;;;;;;4903200;29;20063;-71
2023/01/29 06:12:14;;;;;;;55.88;24.05;;;;;;;;;;4918654;29;20048;-71
2023/01/29 06:14:40;;;;;;;49.33;22.27;;;;;;;;;;4918682;29;20054;-72
2023/01/29 06:17:06;;;;;;;53.30;22.80;;;;;;;;;;4902936;29;20130;-71
2023/01/29 06:19:32;;;;;;;55.00;24.80;;;;;;;;;;4918609;29;20114;-71
2023/01/29 06:21:59;;;;;;;51.78;23.85;;;;;;;;;;4903034;29;20039;-71
2023/01/29 06:24:25;;;;;;;55.13;25.15;;;;;;;;;;4920033;29;20040;-71
2023/01/29 06:26:51;;;;;;;62.58;24.85;;;;;;;;;;4922135;29;20040;-71
2023/01/29 06:29:17;;;;;;;61.72;25.70;;;;;;;;;;4922202;29;20043;-71
2023/01/29 06:31:43;;;;;;;62.05;27.80;;;;;;;;;;4922205;29;20040;-71
2023/01/29 06:34:09;;;;;;;65.30;26.77;;;;;;;;;;4906433;29;20043;-71
2023/01/29 06:36:35;;;;;;;63.75;27.52;;;;;;;;;;4921911;29;20483;-71
2023/01/29 06:39:02;;;;;;;61.55;28.30;;;;;;;;;;4921958;29;20091;-71
2023/01/29 06:41:31;;;;;;;65.03;28.27;;;;;;;;;;4922103;29;20515;-71
2023/01/29 06:43:57;;;;;;;69.03;29.80;;;;;;;;;;4921841;29;20079;-71
2023/01/29 06:46:23;;;;;;;67.40;29.10;;;;;;;;;;4906213;29;20064;-71
2023/01/29 06:48:49;;;;;;;64.05;28.50;;;;;;;;;;4922015;29;20039;-71
2023/01/29 06:51:15;;;;;;;67.30;29.80;;;;;;;;;;4890638;29;20094;-71
2023/01/29 06:53:41;;;;;;;69.70;29.58;;;;;;;;;;4906230;29;20392;-71
2023/01/29 06:56:07;;;;;;;71.20;30.38;;;;;;;;;;4905865;29;20054;-71
2023/01/29 06:58:36;;;;;;;70.20;30.08;;;4.60;99.90;;;;;;4921674;29;20202;-71
2023/01/29 07:01:07;;;;;;;71.10;31.95;;;4.70;99.90;;;;;;4921816;29;20051;-71
2023/01/29 07:03:33;;;;;;;63.63;29.65;;;;;;;;;;4905584;29;20043;-71
2023/01/29 07:05:59;;;;;;;71.70;29.88;;;;;;;;;;4921377;29;20479;-71
2023/01/29 07:08:26;;;;;;;66.28;28.55;;;;;;;;;;4906030;29;20047;-71
2023/01/29 07:10:52;;;;;;;72.43;30.30;;;;;;;;;;4905946;29;20142;-71
2023/01/29 07:13:18;;;;;;;63.55;29.33;;;;;;;;;;4921356;29;20044;-71
2023/01/29 07:15:44;;;;;;;72.10;29.83;;;;;;;;;;4921319;29;20094;-71
2023/01/29 07:18:13;;;;;;;69.43;28.67;;;;;;;;;;4921857;29;20054;-71
2023/01/29 07:20:40;;;;;;;65.03;29.55;;;4.70;99.90;;;;;;4921276;29;20056;-71
2023/01/29 07:23:06;;;;;;;70.55;30.50;;;;;;;;;;4921017;29;20039;-71
2023/01/29 07:25:33;;;;;;;76.38;29.48;;;;;;;;;;4921221;29;20605;-71
2023/01/29 07:28:00;;;;;;;72.00;31.42;;;;;;;;;;4921116;29;20040;-71
2023/01/29 07:30:26;;;;;;;77.32;31.08;;;;;;;;;;4920905;29;20043;-72
2023/01/29 07:32:52;;;;;;;72.03;32.05;;;;;;;;;;4921139;29;20094;-71
2023/01/29 07:35:18;;;;;;;81.88;32.28;;;;;;;;;;4904908;29;20051;-71
2023/01/29 07:37:48;;;;;;;73.60;31.23;;;;;;;;;;4921407;29;20055;-71
2023/01/29 07:40:14;;;;;;;70.15;30.60;;;;;;;;;;4920726;29;20527;-75
2023/01/29 07:42:43;;;;;;;85.07;34.72;;;;;;;;;;4920600;29;20130;-75
2023/01/29 07:45:10;;;;;;;76.53;32.60;;;;;;;;;;4920711;29;20040;-75
2023/01/29 07:47:36;;;;;;;84.13;34.85;;;;;;;;;;4920873;29;20050;-75
2023/01/29 07:50:03;;;;;;;74.55;32.03;;;4.70;99.90;;;;;;4920681;29;20052;-75
2023/01/29 07:52:30;;;;;;;77.15;32.55;;;4.70;99.90;;;;;;4936875;29;20054;-75
2023/01/29 07:54:56;;;;;;;79.65;33.63;;;;;;;;;;4920553;29;20047;-75
2023/01/29 07:57:22;;;;;;;87.53;34.35;;;;;;;;;;4904829;29;20075;-75
2023/01/29 07:59:48;;;;;;;83.72;34.13;;;;;;;;;;4920262;29;20043;-75
2023/01/29 08:02:14;;;;;;;78.05;32.83;;;;;;;;;;4920611;29;20106;-75
2023/01/29 08:04:40;;;;;;;88.93;35.88;;;;;;;;;;4920380;29;20043;-75
2023/01/29 08:07:08;;;;;;;89.55;36.20;;;;;;;;;;4920374;29;20048;-75
2023/01/29 08:09:34;;;;;;;91.60;35.60;;;;;;;;;;4920366;29;20048;-75
2023/01/29 08:12:00;;;;;;;84.47;35.92;;;;;;;;;;4904908;29;20134;-75
2023/01/29 08:14:26;;;;;;;88.15;35.38;;;;;;;;;;4920317;29;20050;-75
2023/01/29 08:16:52;;;;;;;100.63;35.92;;;;;;;;;;4920448;29;20388;-75
2023/01/29 08:19:19;;;;;;;97.20;37.63;;;;;;;;;;4920355;29;20054;-75
2023/01/29 08:21:45;;;;;;;92.18;37.53;;;;;;;;;;4920102;29;20036;-75
2023/01/29 08:24:11;;;;;;;80.55;35.50;;;;;;;;;;4920218;29;20050;-75
2023/01/29 08:26:37;;;;;;;80.57;34.67;;;;;;;;;;4920143;29;20100;-75
2023/01/29 08:29:03;;;;;;;84.18;35.80;;;;;;;;;;4920215;29;20048;-75
2023/01/29 08:31:29;;;;;;;87.50;36.85;;;;;;;;;;4920111;29;20046;-75
2023/01/29 08:33:55;;;;;;;84.13;35.90;;;;;;;;;;4919890;29;20511;-75
2023/01/29 08:36:21;;;;;;;81.85;34.80;;;;;;;;;;4919775;29;20055;-75
2023/01/29 08:38:47;;;;;;;85.43;37.08;;;;;;;;;;4904128;29;20059;-75
2023/01/29 08:41:13;;;;;;;84.32;36.78;;;;;;;;;;4904479;29;20070;-75
2023/01/29 08:43:40;;;;;;;86.38;35.60;;;;;;;;;;4919901;29;20134;-75
2023/01/29 08:46:06;;;;;;;91.18;36.42;;;4.80;99.90;;;;;;4904048;29;20419;-75
2023/01/29 08:48:33;;;;;;;81.35;35.85;;;;;;;;;;4903593;29;20468;-75
2023/01/29 08:51:00;;;;;;;88.35;37.10;;;;;;;;;;4919672;29;20051;-75
2023/01/29 08:53:26;;;;;;;84.60;36.50;;;;;;;;;;4919574;29;20047;-75
2023/01/29 08:55:52;;;;;;;89.10;36.88;;;4.90;99.90;;;;;;4903905;29;20054;-75
2023/01/29 08:58:19;;;;;;;85.18;35.83;;;;;;;;;;4903836;29;20044;-75
2023/01/29 09:00:45;;;;;;;85.63;36.40;;;4.70;99.90;;;;;;4903281;29;20044;-75
2023/01/29 09:03:11;;;;;;;90.53;36.03;;;;;;;;;;4935222;29;20126;-75
2023/01/29 09:05:38;;;;;;;83.05;33.97;;;;;;;;;;4919172;29;20043;-75
2023/01/29 09:08:05;;;;;;;88.32;35.05;;;;;;;;;;4919285;29;20043;-75
2023/01/29 09:10:31;;;;;;;94.28;35.28;;;;;;;;;;4919070;29;20484;-75
2023/01/29 09:12:57;;;;;;;93.82;36.75;;;;;;;;;;4903292;29;20051;-75
2023/01/29 09:15:23;;;;;;;76.70;35.05;;;;;;;;;;4919287;29;20087;-75
2023/01/29 09:17:49;;;;;;;90.60;35.53;;;;;;;;;;4903779;29;20126;-75
2023/01/29 09:20:16;;;;;;;84.45;35.78;;;5.30;99.90;;;;;;4919024;29;20055;-75
2023/01/29 09:22:42;;;;;;;81.50;34.67;;;;;;;;;;4919325;29;20051;-75
2023/01/29 09:25:09;;;;;;;93.00;36.25;;;;;;;;;;4903536;29;20118;-75
2023/01/29 09:27:35;;;;;;;94.78;36.90;;;;;;;;;;4919317;29;20497;-75
2023/01/29 09:30:02;;;;;;;87.60;36.38;;;;;;;;;;4903551;29;20054;-75
2023/01/29 09:32:29;;;;;;;87.07;35.97;;;;;;;;;;4919248;29;20122;-75
2023/01/29 09:34:55;;;;;;;92.97;35.80;;;;;;;;;;4903329;29;20047;-75
2023/01/29 09:37:22;;;;;;;86.13;37.00;;;;;;;;;;4918851;29;20060;-75
2023/01/29 09:39:48;;;;;;;86.32;35.95;;;;;;;;;;4919012;29;20052;-75
2023/01/29 09:42:27;;;;;;;87.22;35.90;;;4.90;99.90;;;;;;4919107;29;20044;-75
2023/01/29 09:45:06;;;;;;;75.60;32.78;;;;;;;;;;4919195;29;20131;-75
2023/01/29 09:47:34;;;;;;;91.68;35.55;;;5.00;99.90;;;;;;4902956;29;20039;-75
2023/01/29 09:50:15;;;;;;;87.57;34.95;;;4.90;99.90;;;;;;4903434;29;20060;-75
2023/01/29 09:52:50;;;;;;;82.63;33.65;;;;;;;;;;4934945;29;20583;-75
2023/01/29 09:55:23;;;;;;;84.35;32.40;;;;;;;;;;4918955;29;20088;-75
2023/01/29 09:58:02;;;;;;;90.47;33.47;;;4.90;99.90;;;;;;4919546;29;20111;-74
2023/01/29 10:00:58;;;;;;;83.95;33.83;;;;;;;;;;4906835;29;20134;-75
2023/01/29 10:03:35;;;;;;;81.15;31.92;;;4.80;99.90;;;;;;4856074;29;20058;-75
2023/01/29 10:06:19;;;;;;;80.60;33.55;;;;;;;;;;4938721;29;20408;-75
2023/01/29 10:08:48;;;;;;;74.07;30.10;;;;;;;;;;4922522;29;20046;-75
2023/01/29 10:11:27;;;;;;;77.78;30.52;;;;;;;;;;4922804;29;20102;-75
2023/01/29 10:14:03;;;;;;;85.90;30.77;;;;;;;;;;4906519;29;20067;-75
2023/01/29 10:16:40;;;;;;;74.10;28.45;;;5.00;99.90;;;;;;4906815;29;20136;-75
2023/01/29 10:19:06;;;;;;;81.00;29.40;;;;;;;;;;4922483;29;20044;-75
2023/01/29 10:21:54;;;;;;;74.43;28.17;;;5.00;99.90;;;;;;4922328;29;20044;-75
2023/01/29 10:24:29;;;;;;;70.60;27.15;;;;;;;;;;4907072;29;20079;-75
2023/01/29 10:26:55;;;;;;;74.85;28.95;;;;;;;;;;4922360;29;20047;-75
2023/01/29 10:29:21;;;;;;;65.43;25.38;;;;;;;;;;4922147;29;20047;-75
2023/01/29 10:31:54;;;;;;;70.53;26.42;;;5.10;99.90;;;;;;4922311;29;20429;-75
2023/01/29 10:34:44;;;;;;;69.95;26.30;;;5.10;99.90;;;;;;4922215;29;20048;-74
2023/01/29 10:37:20;;;;;;;62.50;25.88;;;5.20;99.90;;;;;;4937698;29;20119;-75
2023/01/29 10:39:46;;;;;;;62.63;22.90;;;;;;;;;;4922183;29;20051;-75
2023/01/29 10:42:45;;;;;;;62.58;25.20;;;5.20;99.90;;;;;;4922017;29;20050;-75
2023/01/29 10:45:23;;;;;;;66.85;26.10;;;;;;;;;;4938038;29;20465;-75
2023/01/29 10:48:10;;;;;;;71.40;27.15;;;5.10;99.90;;;;;;4921924;29;20036;-74
2023/01/29 10:50:36;;;;;;;74.97;28.38;;;;;;;;;;4922039;29;20043;-75
2023/01/29 10:53:26;;;;;;;72.50;27.27;;;5.30;99.90;;;;;;4921918;29;20083;-75
2023/01/29 10:56:18;;;;;;;81.15;28.50;;;5.10;99.90;;;;;;4905975;29;20050;-75
2023/01/29 10:58:54;;;;;;;70.13;28.88;;;5.30;99.90;;;;;;4906304;29;20374;-75
2023/01/29 11:01:20;;;;;;;73.15;28.88;;;;;;;;;;4922123;29;20043;-74
2023/01/29 11:03:59;;;;;;;74.35;27.88;;;5.30;99.90;;;;;;4921460;29;20035;-75
2023/01/29 11:06:33;;;;;;;71.93;27.38;;;5.30;99.90;;;;;;4921523;29;20127;-75
2023/01/29 11:09:07;;;;;;;56.88;25.15;;;;;;;;;;4921685;29;20043;-74
2023/01/29 11:12:05;;;;;;;69.75;25.67;;;5.50;99.90;;;;;;4905482;29;20078;-74
2023/01/29 11:14:39;;;;;;;64.18;25.08;;;;;;;;;;4920972;29;20054;-74
2023/01/29 11:17:05;;;;;;;76.80;25.85;;;;;;;;;;4938333;29;20444;-75
2023/01/29 11:19:40;;;;;;;60.53;24.58;;;5.40;99.90;;;;;;4921028;29;20048;-74
2023/01/29 11:22:21;;;;;;;64.35;26.42;;;5.30;99.90;;;;;;4938476;29;20124;-74
2023/01/29 11:25:14;;;;;;;66.85;25.00;;;5.40;99.90;;;;;;4937215;29;20122;-74
2023/01/29 11:27:44;;;;;;;70.78;25.25;;;5.40;99.90;;;;;;4921278;29;20055;-74
2023/01/29 11:30:18;;;;;;;64.53;25.63;;;5.40;99.90;;;;;;4921251;29;20123;-75
2023/01/29 11:32:44;;;;;;;61.33;25.25;;;;;;;;;;4920946;29;20047;-75
2023/01/29 11:35:16;;;;;;;65.18;23.88;;;;;;;;;;4921334;29;20051;-75
2023/01/29 11:37:43;;;;;;;58.35;23.48;;;;;;;;;;4920986;29;20052;-75
2023/01/29 11:40:19;;;;;;;53.47;23.15;;;;;;;;;;4920822;29;20055;-75
2023/01/29 11:42:49;;;;;;;61.65;22.20;;;5.60;99.90;;;;;;4905594;29;20044;-75
2023/01/29 11:45:33;;;;;;;54.60;21.83;;;;;;;;;;4921310;29;20043;-75
2023/01/29 11:47:59;;;;;;;56.92;21.42;;;;;;;;;;4905358;29;20048;-75
2023/01/29 11:50:28;;;;;;;50.17;20.38;;;5.70;99.90;;;;;;4904989;29;20040;-75
2023/01/29 11:52:55;;;;;;;55.97;20.50;;;;;;;;;;4920757;29;20048;-75
2023/01/29 11:55:21;;;;;;;47.85;19.52;;;;;;;;;;4920774;29;20524;-75
2023/01/29 11:57:53;;;;;;;57.13;19.75;;;;;;;;;;4921102;29;20048;-74
2023/01/29 12:00:25;;;;;;;48.85;20.23;;;5.50;99.90;;;;;;4904903;29;20124;-75
2023/01/29 12:02:56;;;;;;;50.47;19.98;;;5.70;99.90;;;;;;4920626;29;20051;-75
2023/01/29 12:05:24;;;;;;;48.00;18.10;;;5.60;99.90;;;;;;4920796;29;20056;-75
2023/01/29 12:07:52;;;;;;;49.50;19.20;;;;;;;;;;4905043;29;20373;-75
2023/01/29 12:10:50;;;;;;;55.30;18.25;;;5.70;99.90;;;;;;4920443;29;20044;-75
2023/01/29 12:13:26;;;;;;;49.55;18.50;;;;;;;;;;4854380;29;20055;-75
2023/01/29 12:16:43;;;;;;;47.33;18.55;;;5.80;99.90;;;;;;4921018;29;20095;-75
2023/01/29 12:19:34;;;;;;;48.55;17.52;;;;;;;;;;4888678;29;20484;-75
2023/01/29 12:22:34;;;;;;;43.53;16.60;;;5.80;99.90;;;;;;4919058;29;20040;-75
2023/01/29 12:25:21;;;;;;;35.42;14.60;;;5.70;99.90;;;;;;4920448;29;20497;-75
2023/01/29 12:28:29;;;;;;;40.40;14.35;;;5.60;99.90;;;;;;4936032;29;20039;-74
2023/01/29 12:31:32;;;;;;;37.30;13.13;;;5.60;99.90;;;;;;4841593;29;20079;-74
2023/01/29 12:34:24;;;;;;;40.92;12.98;;;5.80;99.90;;;;;;4826188;29;20096;-74
2023/01/29 12:37:19;;;;;;;33.28;12.73;;;5.80;99.90;;;;;;4904171;29;20055;-73
2023/01/29 12:39:45;;;;;;;29.17;10.95;;;;;;;;;;4917503;29;20047;-73
2023/01/29 12:42:23;;;;;;;38.85;13.55;;;5.60;99.90;;;;;;4920162;29;20051;-74
2023/01/29 12:44:57;;;;;;;37.30;12.13;;;5.80;99.90;;;;;;4919563;29;20036;-74
2023/01/29 12:47:37;;;;;;;33.13;12.63;;;;;;;;;;4919879;29;20039;-74
2023/01/29 12:50:18;;;;;;;41.15;13.52;;;5.90;99.90;;;;;;4903848;29;20071;-74
2023/01/29 12:53:16;;;;;;;32.17;12.80;;;5.70;99.90;;;;;;4919791;29;20490;-73
2023/01/29 12:55:52;;;;;;;33.75;12.68;;;5.70;99.90;;;;;;4903562;29;20146;-73
2023/01/29 12:58:23;;;;;;;37.00;13.10;;;;;;;;;;4903963;29;20082;-74
2023/01/29 13:00:51;;;;;;;35.55;11.55;;;;;;;;;;4903626;29;20043;-74
2023/01/29 13:03:23;;;;;;;35.65;12.45;;;5.80;99.90;;;;;;4919634;29;20075;-74
2023/01/29 13:06:01;;;;;;;28.73;11.02;;;;;;;;;;4903653;29;20039;-74
2023/01/29 13:08:37;;;;;;;31.50;10.60;;;5.80;99.90;;;;;;4919702;29;20085;-74
2023/01/29 13:11:09;;;;;;;24.92;9.43;;;5.90;99.90;;;;;;4919558;29;20500;-74
2023/01/29 13:13:51;;;;;;;32.75;11.35;;;6.00;99.90;;;;;;4919430;29;20102;-74
2023/01/29 13:16:22;;;;;;;24.23;8.30;;;6.10;99.90;;;;;;4919342;29;20144;-74
2023/01/29 13:18:48;;;;;;;30.40;7.93;;;;;;;;;;4919327;29;20291;-74
2023/01/29 13:21:24;;;;;;;23.90;8.45;;;6.00;99.90;;;;;;4935040;29;20051;-74
2023/01/29 13:23:56;;;;;;;22.35;8.48;;;6.30;99.90;;;;;;4919387;29;20547;-74
2023/01/29 13:26:23;;;;;;;;;;;6.10;99.90;;;;;;4935663;29;20075;-74
2023/01/29 13:28:49;;;;;;;22.75;8.90;;;;;;;;;;4919109;29;19925;-74
2023/01/29 13:31:33;;;;;;;23.58;7.90;;;;;;;;;;4935739;29;20039;-74
2023/01/29 13:34:04;;;;;;;18.08;7.35;;;;;;;;;;4918736;29;20043;-74
2023/01/29 13:36:30;;;;;;;21.92;8.38;;;6.00;99.90;;;;;;4918714;29;20087;-74
2023/01/29 13:39:07;;;;;;;18.13;7.32;;;;;;;;;;4918841;29;20056;-74
2023/01/29 13:41:40;;;;;;;14.25;6.90;;;6.10;99.90;;;;;;4918912;29;20086;-74
2023/01/29 13:44:20;;;;;;;21.30;7.55;;;6.20;99.90;;;;;;4918947;29;20110;-74
2023/01/29 13:46:59;;;;;;;15.70;7.20;;;6.20;99.90;;;;;;4934963;29;20059;-74
2023/01/29 13:49:39;;;;;;;16.63;6.97;;;;;;;;;;4918937;29;20051;-74
2023/01/29 13:52:29;;;;;;;22.95;7.20;;;;;;;;;;4934714;29;20130;-74
2023/01/29 13:54:57;;;;;;;16.35;7.15;;;;;;;;;;4934937;29;20101;-74
2023/01/29 13:57:56;;;;;;;18.27;7.43;;;;;;;;;;4934613;29;20106;-74
2023/01/29 14:00:29;;;;;;;22.17;8.38;;;;;;;;;;4883637;29;20160;-74
2023/01/29 14:02:55;;;;;;;28.65;8.48;;;;;;;;;;4918836;29;20444;-74
2023/01/29 14:05:30;;;;;;;22.38;8.60;;;6.00;99.90;;;;;;4918969;29;20400;-74
2023/01/29 14:08:02;;;;;;;17.17;7.85;;;;;;;;;;4934402;29;20047;-74
2023/01/29 14:10:30;;;;;;;22.58;8.48;;;6.00;99.90;;;;;;4918595;29;20100;-74
2023/01/29 14:12:59;;;;;;;23.30;9.15;;;;;;;;;;4918725;29;20040;-74
2023/01/29 14:15:27;;;;;;;24.00;9.35;;;6.10;99.90;;;;;;4902823;29;20035;-74
2023/01/29 14:17:55;;;;;;;26.25;9.02;;;;;;;;;;4918848;29;20123;-74
2023/01/29 14:20:28;;;;;;;26.30;9.27;;;6.10;99.90;;;;;;4902932;29;20047;-74
2023/01/29 14:22:58;;;;;;;30.35;8.90;;;6.10;99.90;;;;;;4918553;29;20071;-74
2023/01/29 14:25:29;;;;;;;34.58;8.85;;;;;;;;;;4918555;29;20043;-74
2023/01/29 14:27:56;;;;;;;27.23;9.85;;;;;;;;;;4918542;29;20043;-74
2023/01/29 14:30:23;;;;;;;26.42;8.98;;;6.00;99.90;;;;;;4934593;29;20436;-74
2023/01/29 14:32:50;;;;;;;31.45;10.30;;;;;;;;;;4918427;29;20086;-74
2023/01/29 14:35:21;;;;;;;30.58;10.82;;;;;;;;;;4918239;29;20052;-74